createdAt,value
2018-09-18T00:02:20.331Z,10.53
2018-09-18T00:04:48.746Z,9.83
2018-09-18T00:07:17.149Z,10.20
2018-09-18T00:09:45.543Z,10.20
2018-09-18T00:12:13.933Z,10.57
2018-09-18T00:14:42.349Z,10.80
2018-09-18T00:17:10.753Z,10.87
2018-09-18T00:19:39.197Z,10.63
2018-09-18T00:22:07.585Z,10.60
2018-09-18T00:24:36.003Z,10.27
2018-09-18T00:27:04.382Z,10.40
2018-09-18T00:29:32.791Z,10.17
2018-09-18T00:32:01.181Z,10.33
2018-09-18T00:34:29.622Z,10.33
2018-09-18T00:36:57.998Z,9.98
2018-09-18T00:39:26.474Z,10.47
2018-09-18T00:41:54.849Z,10.73
2018-09-18T00:44:23.297Z,9.93
2018-09-18T00:46:51.681Z,11.13
2018-09-18T00:49:20.065Z,9.97
2018-09-18T00:51:48.473Z,10.33
2018-09-18T00:54:16.852Z,9.53
2018-09-18T00:56:45.266Z,10.40
2018-09-18T00:59:13.666Z,10.27
2018-09-18T01:01:42.069Z,10.53
2018-09-18T01:04:10.457Z,10.10
2018-09-18T01:06:38.890Z,9.80
2018-09-18T01:09:08.877Z,9.90
2018-09-18T01:11:37.289Z,10.50
2018-09-18T01:14:05.685Z,8.80
2018-09-18T01:16:34.097Z,10.70
2018-09-18T01:19:02.916Z,9.87
2018-09-18T01:21:31.337Z,9.90
2018-09-18T01:23:59.711Z,9.17
2018-09-18T01:26:28.125Z,9.87
2018-09-18T01:28:56.510Z,9.73
2018-09-18T01:31:24.938Z,9.60
2018-09-18T01:33:53.336Z,9.70
2018-09-18T01:36:21.729Z,11.27
2018-09-18T01:38:50.140Z,9.77
2018-09-18T01:41:18.521Z,9.53
2018-09-18T01:43:46.971Z,9.40
2018-09-18T01:46:15.401Z,10.27
2018-09-18T01:48:43.809Z,10.27
2018-09-18T01:51:12.202Z,9.37
2018-09-18T01:53:40.637Z,9.23
2018-09-18T01:56:09.097Z,8.87
2018-09-18T01:58:37.508Z,10.27
2018-09-18T02:01:05.937Z,9.33
2018-09-18T02:03:34.364Z,9.13
2018-09-18T02:06:02.790Z,8.50
2018-09-18T02:08:31.270Z,9.07
2018-09-18T02:10:59.650Z,9.47
2018-09-18T02:13:28.069Z,9.13
2018-09-18T02:15:56.441Z,8.87
2018-09-18T02:18:24.861Z,10.23
2018-09-18T02:20:53.313Z,9.77
2018-09-18T02:23:21.773Z,9.33
2018-09-18T02:25:50.165Z,9.23
2018-09-18T02:28:18.541Z,9.13
2018-09-18T02:30:46.974Z,9.40
2018-09-18T02:33:15.346Z,8.77
2018-09-18T02:35:43.766Z,8.87
2018-09-18T02:38:12.160Z,9.77
2018-09-18T02:40:40.590Z,9.00
2018-09-18T02:43:08.965Z,8.60
2018-09-18T02:45:37.376Z,9.20
2018-09-18T02:48:06.082Z,9.17
2018-09-18T02:50:34.533Z,9.53
2018-09-18T02:53:03.710Z,9.80
2018-09-18T02:55:32.130Z,9.03
2018-09-18T02:58:00.522Z,9.07
2018-09-18T03:00:28.949Z,9.10
2018-09-18T03:02:57.327Z,9.07
2018-09-18T03:05:25.770Z,9.57
2018-09-18T03:07:54.169Z,9.23
2018-09-18T03:10:22.577Z,9.47
2018-09-18T03:12:50.961Z,9.50
2018-09-18T03:15:19.458Z,9.60
2018-09-18T03:17:47.871Z,8.93
2018-09-18T03:20:16.378Z,9.27
2018-09-18T03:22:44.805Z,9.73
2018-09-18T03:25:13.185Z,8.90
2018-09-18T03:27:41.618Z,9.80
2018-09-18T03:30:10.038Z,9.03
2018-09-18T03:32:38.513Z,9.37
2018-09-18T03:35:06.910Z,9.07
2018-09-18T03:37:35.357Z,9.47
2018-09-18T03:40:04.337Z,9.60
2018-09-18T03:42:32.754Z,9.37
2018-09-18T03:45:01.134Z,9.13
2018-09-18T03:47:29.548Z,9.50
2018-09-18T03:49:57.922Z,8.73
2018-09-18T03:52:26.348Z,9.37
2018-09-18T03:54:54.717Z,9.57
2018-09-18T03:57:23.128Z,9.73
2018-09-18T03:59:51.505Z,8.67
2018-09-18T04:02:19.926Z,9.17
2018-09-18T04:04:48.309Z,9.47
2018-09-18T04:07:16.751Z,10.03
2018-09-18T04:09:45.138Z,9.17
2018-09-18T04:12:13.593Z,9.33
2018-09-18T04:14:41.969Z,9.83
2018-09-18T04:17:10.349Z,9.57
2018-09-18T04:19:38.793Z,9.30
2018-09-18T04:22:07.173Z,9.80
2018-09-18T04:24:35.610Z,10.07
2018-09-18T04:27:04.001Z,9.90
2018-09-18T04:29:32.418Z,10.03
2018-09-18T04:32:00.793Z,8.73
2018-09-18T04:34:29.218Z,10.13
2018-09-18T04:36:57.615Z,10.23
2018-09-18T04:39:26.029Z,9.60
2018-09-18T04:41:54.409Z,10.17
2018-09-18T04:44:22.817Z,9.63
2018-09-18T04:46:51.212Z,9.30
2018-09-18T04:49:19.645Z,9.87
2018-09-18T04:51:48.046Z,10.10
2018-09-18T04:54:16.481Z,9.17
2018-09-18T04:56:44.869Z,10.23
2018-09-18T04:59:13.290Z,9.73
2018-09-18T05:01:41.718Z,10.17
2018-09-18T05:04:10.133Z,9.90
2018-09-18T05:06:38.538Z,10.57
2018-09-18T05:09:09.106Z,9.90
2018-09-18T05:11:37.498Z,9.40
2018-09-18T05:14:06.060Z,9.90
2018-09-18T05:16:34.939Z,9.70
2018-09-18T05:19:03.464Z,10.00
2018-09-18T05:21:31.887Z,10.40
2018-09-18T05:24:00.277Z,10.00
2018-09-18T05:26:28.701Z,10.80
2018-09-18T05:28:57.089Z,10.17
2018-09-18T05:31:25.533Z,10.33
2018-09-18T05:33:53.922Z,10.03
2018-09-18T05:36:22.340Z,10.17
2018-09-18T05:38:50.720Z,9.90
2018-09-18T05:41:19.153Z,8.97
2018-09-18T05:43:47.541Z,9.00
2018-09-18T05:46:16.094Z,8.80
2018-09-18T05:48:44.482Z,9.33
2018-09-18T05:51:12.893Z,8.83
2018-09-18T05:53:41.381Z,9.20
2018-09-18T05:56:09.841Z,9.43
2018-09-18T05:58:38.229Z,8.33
2018-09-18T06:01:06.644Z,9.37
2018-09-18T06:03:35.054Z,9.60
2018-09-18T06:06:03.476Z,9.50
2018-09-18T06:08:31.894Z,9.00
2018-09-18T06:11:00.275Z,9.60
2018-09-18T06:13:28.689Z,9.60
2018-09-18T06:15:57.077Z,9.17
2018-09-18T06:18:25.508Z,9.47
2018-09-18T06:20:53.897Z,9.13
2018-09-18T06:23:22.353Z,9.07
2018-09-18T06:25:50.803Z,9.43
2018-09-18T06:28:19.225Z,8.63
2018-09-18T06:30:47.694Z,10.10
2018-09-18T06:33:16.334Z,9.70
2018-09-18T06:35:44.747Z,9.43
2018-09-18T06:38:13.168Z,9.43
2018-09-18T06:40:41.561Z,9.70
2018-09-18T06:43:10.138Z,8.87
2018-09-18T06:45:38.565Z,9.83
2018-09-18T06:48:07.104Z,9.10
2018-09-18T06:50:35.446Z,10.07
2018-09-18T06:53:03.850Z,10.23
2018-09-18T06:55:32.293Z,9.57
2018-09-18T06:58:00.697Z,9.63
2018-09-18T07:00:29.141Z,9.63
2018-09-18T07:02:57.517Z,10.17
2018-09-18T07:05:26.056Z,9.83
2018-09-18T07:07:54.536Z,9.77
2018-09-18T07:10:22.942Z,9.37
2018-09-18T07:12:51.365Z,9.70
2018-09-18T07:15:19.785Z,9.83
2018-09-18T07:17:48.148Z,9.50
2018-09-18T07:20:17.884Z,8.20
2018-09-18T07:22:46.257Z,9.53
2018-09-18T07:25:14.685Z,9.50
2018-09-18T07:27:43.094Z,8.97
2018-09-18T07:30:11.493Z,8.77
2018-09-18T07:32:39.873Z,9.13
2018-09-18T07:35:08.393Z,9.50
2018-09-18T07:37:36.773Z,9.50
2018-09-18T07:40:05.210Z,9.10
2018-09-18T07:42:33.577Z,9.53
2018-09-18T07:45:02.019Z,8.70
2018-09-18T07:47:30.421Z,9.33
2018-09-18T07:49:58.789Z,8.98
2018-09-18T07:52:27.198Z,8.48
2018-09-18T07:54:55.577Z,8.58
2018-09-18T07:57:23.989Z,8.88
2018-09-18T07:59:52.366Z,8.70
2018-09-18T08:02:20.781Z,8.65
2018-09-18T08:04:49.226Z,8.28
2018-09-18T08:07:17.662Z,8.68
2018-09-18T08:09:46.030Z,7.78
2018-09-18T08:12:14.441Z,8.50
2018-09-18T08:14:42.802Z,7.80
2018-09-18T08:17:11.217Z,8.28
2018-09-18T08:19:39.778Z,8.63
2018-09-18T08:22:08.164Z,9.00
2018-09-18T08:24:36.532Z,8.50
2018-09-18T08:27:04.953Z,8.75
2018-09-18T08:29:33.322Z,7.90
2018-09-18T08:32:01.782Z,7.53
2018-09-18T08:34:30.253Z,8.35
2018-09-18T08:36:58.645Z,8.50
2018-09-18T08:39:27.029Z,8.83
2018-09-18T08:41:55.400Z,8.13
2018-09-18T08:44:23.812Z,7.80
2018-09-18T08:46:52.227Z,7.65
2018-09-18T08:49:20.642Z,8.70
2018-09-18T08:51:49.113Z,7.70
2018-09-18T08:54:17.467Z,8.35
2018-09-18T08:56:45.855Z,7.58
2018-09-18T08:59:14.270Z,8.65
2018-09-18T09:01:42.703Z,7.47
2018-09-18T09:04:11.099Z,8.20
2018-09-18T09:06:39.550Z,9.93
2018-09-18T09:09:11.679Z,9.38
2018-09-18T09:11:40.057Z,8.50
2018-09-18T09:14:08.519Z,7.42
2018-09-18T09:16:36.963Z,7.10
2018-09-18T09:19:05.407Z,8.25
2018-09-18T09:21:33.862Z,7.40
2018-09-18T09:24:03.016Z,7.53
2018-09-18T09:26:31.423Z,7.12
2018-09-18T09:28:59.868Z,7.67
2018-09-18T09:31:28.262Z,7.47
2018-09-18T09:33:56.768Z,8.38
2018-09-18T09:36:25.161Z,7.87
2018-09-18T09:38:53.676Z,7.30
2018-09-18T09:41:22.042Z,7.83
2018-09-18T09:43:50.437Z,8.20
2018-09-18T09:46:18.858Z,8.08
2018-09-18T09:48:47.229Z,7.90
2018-09-18T09:51:15.730Z,7.67
2018-09-18T09:53:44.066Z,7.00
2018-09-18T09:56:12.507Z,7.17
2018-09-18T09:58:40.898Z,8.53
2018-09-18T10:01:16.746Z,7.85
2018-09-18T10:03:45.137Z,7.87
2018-09-18T10:06:13.539Z,7.70
2018-09-18T10:08:41.913Z,7.08
2018-09-18T10:11:10.321Z,7.42
2018-09-18T10:13:38.716Z,7.90
2018-09-18T10:16:07.130Z,8.00
2018-09-18T10:18:35.591Z,7.85
2018-09-18T10:21:04.038Z,9.45
2018-09-18T10:23:32.430Z,7.80
2018-09-18T10:26:00.959Z,7.15
2018-09-18T10:28:29.353Z,7.28
2018-09-18T10:30:57.777Z,7.92
2018-09-18T10:33:26.178Z,7.10
2018-09-18T10:35:54.549Z,7.50
2018-09-18T10:38:22.988Z,7.30
2018-09-18T10:40:51.404Z,7.40
2018-09-18T10:43:19.861Z,8.50
2018-09-18T10:45:48.256Z,7.90
2018-09-18T10:48:16.716Z,7.50
2018-09-18T10:50:45.106Z,7.97
2018-09-18T10:53:13.596Z,7.92
2018-09-18T10:55:41.962Z,7.87
2018-09-18T10:58:10.386Z,7.60
2018-09-18T11:00:38.806Z,8.00
2018-09-18T11:03:07.245Z,7.92
2018-09-18T11:05:35.688Z,7.25
2018-09-18T11:08:04.353Z,8.60
2018-09-18T11:10:32.827Z,7.95
2018-09-18T11:13:01.991Z,8.08
2018-09-18T11:15:30.463Z,7.53
2018-09-18T11:17:58.863Z,7.75
2018-09-18T11:20:27.323Z,7.35
2018-09-18T11:22:55.757Z,6.40
2018-09-18T11:25:24.178Z,6.47
2018-09-18T11:27:52.546Z,7.40
2018-09-18T11:30:20.980Z,8.85
2018-09-18T11:32:49.420Z,7.35
2018-09-18T11:35:17.806Z,7.75
2018-09-18T11:37:46.177Z,7.12
2018-09-18T11:40:14.614Z,6.95
2018-09-18T11:42:43.103Z,7.33
2018-09-18T11:45:11.509Z,7.00
2018-09-18T11:47:39.921Z,6.72
2018-09-18T11:50:08.366Z,9.48
2018-09-18T11:52:36.748Z,7.47
2018-09-18T11:55:05.198Z,7.03
2018-09-18T11:57:33.804Z,6.92
2018-09-18T12:00:02.268Z,6.90
2018-09-18T12:02:30.641Z,6.37
2018-09-18T12:04:59.072Z,6.60
2018-09-18T12:07:27.441Z,6.40
2018-09-18T12:09:55.869Z,7.90
2018-09-18T12:12:24.269Z,6.87
2018-09-18T12:14:52.893Z,7.40
2018-09-18T12:17:21.265Z,6.67
2018-09-18T12:19:49.734Z,6.67
2018-09-18T12:22:18.263Z,6.05
2018-09-18T12:24:46.633Z,6.62
2018-09-18T12:27:15.048Z,6.60
2018-09-18T12:29:43.469Z,6.67
2018-09-18T12:32:11.961Z,6.85
2018-09-18T12:34:40.429Z,7.12
2018-09-18T12:37:08.873Z,6.53
2018-09-18T12:39:37.309Z,6.78
2018-09-18T12:42:05.853Z,6.58
2018-09-18T12:44:34.522Z,6.42
2018-09-18T12:47:02.997Z,6.83
2018-09-18T12:49:31.492Z,6.30
2018-09-18T12:51:59.932Z,7.30
2018-09-18T12:54:28.651Z,6.92
2018-09-18T12:56:57.183Z,6.25
2018-09-18T12:59:25.911Z,6.25
2018-09-18T13:01:55.602Z,6.97
2018-09-18T13:04:24.025Z,6.95
2018-09-18T13:06:52.505Z,6.85
2018-09-18T13:09:20.878Z,6.40
2018-09-18T13:11:49.405Z,6.75
2018-09-18T13:14:17.927Z,6.17
2018-09-18T13:16:46.242Z,6.95
2018-09-18T13:19:14.695Z,7.28
2018-09-18T13:21:43.170Z,6.62
2018-09-18T13:24:11.770Z,5.80
2018-09-18T13:26:40.148Z,6.53
2018-09-18T13:29:08.575Z,5.92
2018-09-18T13:31:37.693Z,6.60
2018-09-18T13:34:06.103Z,6.22
2018-09-18T13:36:34.661Z,6.33
2018-09-18T13:39:03.818Z,6.20
2018-09-18T13:41:32.238Z,6.22
2018-09-18T13:44:00.698Z,6.40
2018-09-18T13:46:29.189Z,5.97
2018-09-18T13:48:57.553Z,6.53
2018-09-18T13:51:25.952Z,6.80
2018-09-18T13:53:54.414Z,6.90
2018-09-18T13:56:22.917Z,6.53
2018-09-18T13:58:51.325Z,6.75
2018-09-18T14:01:19.743Z,6.60
2018-09-18T14:03:48.401Z,6.70
2018-09-18T14:06:16.845Z,6.25
2018-09-18T14:08:45.254Z,6.00
2018-09-18T14:11:13.621Z,6.42
2018-09-18T14:13:42.006Z,6.40
2018-09-18T14:16:10.410Z,6.42
2018-09-18T14:18:38.875Z,7.30
2018-09-18T14:21:07.714Z,6.33
2018-09-18T14:23:36.099Z,6.97
2018-09-18T14:26:04.562Z,6.03
2018-09-18T14:28:32.951Z,6.80
2018-09-18T14:31:01.372Z,6.58
2018-09-18T14:33:29.733Z,6.50
2018-09-18T14:35:58.142Z,8.45
2018-09-18T14:38:26.547Z,6.45
2018-09-18T14:40:54.969Z,6.95
2018-09-18T14:43:23.357Z,7.70
2018-09-18T14:45:51.757Z,6.47
2018-09-18T14:48:20.127Z,7.22
2018-09-18T14:50:48.541Z,7.30
2018-09-18T14:53:16.912Z,6.72
2018-09-18T14:55:45.420Z,7.60
2018-09-18T14:58:13.809Z,6.80
2018-09-18T15:00:42.453Z,7.67
2018-09-18T15:03:10.830Z,6.53
2018-09-18T15:05:39.322Z,6.85
2018-09-18T15:08:07.693Z,7.47
2018-09-18T15:10:36.261Z,8.43
2018-09-18T15:13:04.741Z,6.97
2018-09-18T15:15:33.204Z,6.97
2018-09-18T15:18:01.925Z,7.37
2018-09-18T15:20:30.412Z,7.03
2018-09-18T15:22:58.917Z,7.40
2018-09-18T15:25:27.291Z,7.92
2018-09-18T15:27:56.040Z,6.78
2018-09-18T15:30:24.418Z,7.00
2018-09-18T15:32:52.821Z,7.80
2018-09-18T15:35:21.338Z,7.35
2018-09-18T15:37:50.042Z,11.53
2018-09-18T15:40:18.509Z,8.30
2018-09-18T15:42:48.158Z,7.25
2018-09-18T15:45:16.570Z,6.58
2018-09-18T15:47:44.999Z,6.37
2018-09-18T15:50:13.429Z,6.15
2018-09-18T15:52:41.841Z,6.80
2018-09-18T15:55:10.290Z,6.15
2018-09-18T15:57:39.698Z,6.95
2018-09-18T16:00:08.051Z,6.42
2018-09-18T16:02:36.477Z,6.72
2018-09-18T16:05:04.979Z,6.92
2018-09-18T16:07:34.817Z,7.70
2018-09-18T16:10:03.770Z,7.17
2018-09-18T16:12:32.146Z,7.60
2018-09-18T16:15:00.617Z,6.40
2018-09-18T16:17:29.010Z,7.17
2018-09-18T16:19:57.502Z,6.40
2018-09-18T16:22:25.974Z,6.17
2018-09-18T16:24:54.419Z,6.10
2018-09-18T16:27:22.753Z,5.95
2018-09-18T16:29:51.239Z,5.40
2018-09-18T16:32:19.617Z,5.83
2018-09-18T16:34:48.021Z,5.80
2018-09-18T16:37:16.415Z,5.95
2018-09-18T16:39:44.817Z,5.75
2018-09-18T16:42:13.219Z,5.72
2018-09-18T16:44:41.629Z,6.33
2018-09-18T16:47:10.015Z,5.95
2018-09-18T16:49:38.425Z,5.87
2018-09-18T16:54:35.314Z,6.78
2018-09-18T16:57:03.596Z,6.03
2018-09-18T16:59:32.023Z,6.12
2018-09-18T17:02:00.439Z,5.83
2018-09-18T17:04:28.895Z,5.97
2018-09-18T17:06:57.303Z,6.08
2018-09-18T17:09:25.701Z,6.40
2018-09-18T17:11:54.116Z,6.30
2018-09-18T17:14:22.619Z,5.15
2018-09-18T17:16:51.301Z,5.37
2018-09-18T17:19:19.710Z,4.90
2018-09-18T17:21:48.169Z,4.87
2018-09-18T17:24:16.564Z,4.87
2018-09-18T17:26:45.134Z,4.03
2018-09-18T17:29:13.676Z,4.87
2018-09-18T17:31:42.079Z,4.17
2018-09-18T17:34:10.547Z,4.30
2018-09-18T17:36:39.125Z,3.87
2018-09-18T17:39:09.261Z,3.70
2018-09-18T17:41:37.767Z,3.65
2018-09-18T17:44:06.420Z,3.30
2018-09-18T17:46:34.994Z,3.45
2018-09-18T17:49:03.700Z,3.00
2018-09-18T17:51:32.205Z,2.92
2018-09-18T17:54:00.622Z,3.22
2018-09-18T17:56:29.219Z,3.17
2018-09-18T17:58:57.761Z,2.83
2018-09-18T18:01:26.579Z,2.65
2018-09-18T18:03:55.026Z,2.30
2018-09-18T18:06:23.523Z,2.77
2018-09-18T18:08:52.629Z,2.40
2018-09-18T18:11:21.063Z,2.87
2018-09-18T18:13:49.515Z,3.27
2018-09-18T18:16:17.997Z,2.47
2018-09-18T18:18:46.531Z,2.23
2018-09-18T18:21:15.023Z,2.50
2018-09-18T18:23:43.514Z,2.57
2018-09-18T18:26:12.018Z,2.60
2018-09-18T18:28:40.796Z,2.57
2018-09-18T18:31:09.237Z,2.37
2018-09-18T18:33:37.722Z,2.73
2018-09-18T18:36:06.221Z,3.40
2018-09-18T18:38:34.806Z,3.20
2018-09-18T18:41:03.714Z,2.30
2018-09-18T18:43:32.197Z,3.80
2018-09-18T18:46:00.610Z,3.10
2018-09-18T18:48:29.141Z,3.20
2018-09-18T18:50:57.554Z,2.57
2018-09-18T18:53:26.005Z,2.30
2018-09-18T18:55:54.725Z,2.40
2018-09-18T19:01:10.300Z,2.87
2018-09-18T19:03:38.752Z,2.50
2018-09-18T19:06:07.457Z,2.60
2018-09-18T19:08:35.983Z,5.73
2018-09-18T19:11:05.102Z,2.73
2018-09-18T19:13:34.414Z,2.77
2018-09-18T19:16:02.946Z,2.63
2018-09-18T19:18:31.425Z,2.67
2018-09-18T19:21:00.136Z,2.50
2018-09-18T19:23:28.644Z,2.23
2018-09-18T19:25:57.868Z,2.20
2018-09-18T19:28:26.235Z,2.23
2018-09-18T19:30:54.771Z,2.10
2018-09-18T19:33:25.280Z,1.97
2018-09-18T19:35:54.472Z,1.83
2018-09-18T19:38:24.761Z,2.00
2018-09-18T19:40:53.396Z,1.90
2018-09-18T19:43:21.954Z,1.70
2018-09-18T19:45:50.328Z,1.83
2018-09-18T19:48:18.754Z,1.90
2018-09-18T19:50:47.613Z,2.10
2018-09-18T19:53:16.047Z,2.00
2018-09-18T19:55:44.525Z,1.67
2018-09-18T19:58:14.237Z,2.00
2018-09-18T20:00:42.739Z,1.70
2018-09-18T20:03:11.209Z,1.70
2018-09-18T20:05:39.658Z,1.80
2018-09-18T20:08:08.150Z,1.63
2018-09-18T20:10:36.573Z,1.90
2018-09-18T20:13:05.067Z,1.60
2018-09-18T20:15:33.454Z,1.57
2018-09-18T20:18:02.713Z,1.50
2018-09-18T20:20:31.140Z,1.70
2018-09-18T20:22:59.560Z,1.50
2018-09-18T20:25:27.950Z,1.60
2018-09-18T20:27:56.372Z,1.40
2018-09-18T20:30:24.774Z,1.20
2018-09-18T20:32:53.249Z,1.40
2018-09-18T20:35:21.649Z,1.63
2018-09-18T20:37:50.091Z,1.70
2018-09-18T20:40:18.509Z,1.17
2018-09-18T20:42:46.940Z,1.30
2018-09-18T20:45:15.388Z,1.27
2018-09-18T20:47:43.877Z,1.20
2018-09-18T20:50:12.334Z,1.20
2018-09-18T20:52:40.748Z,1.07
2018-09-18T20:55:09.601Z,1.17
2018-09-18T20:57:38.013Z,1.13
2018-09-18T21:00:06.697Z,1.20
2018-09-18T21:02:41.941Z,1.30
2018-09-18T21:05:10.753Z,1.17
2018-09-18T21:07:39.163Z,1.30
2018-09-18T21:10:07.603Z,1.17
2018-09-18T21:12:36.010Z,1.20
2018-09-18T21:15:04.473Z,1.17
2018-09-18T21:17:32.906Z,1.10
2018-09-18T21:20:01.521Z,1.13
2018-09-18T21:22:29.988Z,1.30
2018-09-18T21:25:09.758Z,1.00
2018-09-18T21:27:38.175Z,1.13
2018-09-18T21:30:06.718Z,1.27
2018-09-18T21:32:35.347Z,1.00
2018-09-18T21:35:04.365Z,1.20
2018-09-18T21:37:33.117Z,1.50
2018-09-18T21:40:01.552Z,1.20
2018-09-18T21:42:29.973Z,1.20
2018-09-18T21:44:58.422Z,1.30
2018-09-18T21:47:27.118Z,1.27
2018-09-18T21:49:55.573Z,1.10
2018-09-18T21:52:24.282Z,1.00
2018-09-18T21:54:52.789Z,1.20
2018-09-18T21:57:21.215Z,1.33
2018-09-18T21:59:49.717Z,1.37
2018-09-18T22:02:18.158Z,1.33
2018-09-18T22:04:46.553Z,1.10
2018-09-18T22:07:15.016Z,1.40
2018-09-18T22:09:43.577Z,1.33
2018-09-18T22:12:12.003Z,1.40
2018-09-18T22:14:40.431Z,1.40
2018-09-18T22:17:08.931Z,1.27
2018-09-18T22:19:37.293Z,1.10
2018-09-18T22:22:05.831Z,1.20
2018-09-18T22:24:34.218Z,1.67
2018-09-18T22:27:02.711Z,1.37
2018-09-18T22:29:31.115Z,1.53
2018-09-18T22:31:59.571Z,1.50
2018-09-18T22:34:28.019Z,1.27
2018-09-18T22:36:56.446Z,1.50
2018-09-18T22:39:24.853Z,1.87
2018-09-18T22:41:53.298Z,1.80
2018-09-18T22:44:21.728Z,1.83
2018-09-18T22:46:50.181Z,1.40
2018-09-18T22:49:18.601Z,1.60
2018-09-18T22:51:47.073Z,1.20
2018-09-18T22:54:15.473Z,1.50
2018-09-18T22:56:43.877Z,1.57
2018-09-18T22:59:12.332Z,1.27
2018-09-18T23:01:40.754Z,1.10
2018-09-18T23:04:09.226Z,1.20
2018-09-18T23:06:37.654Z,1.40
2018-09-18T23:09:07.737Z,1.30
2018-09-18T23:11:36.146Z,1.10
2018-09-18T23:14:05.005Z,1.20
2018-09-18T23:16:33.589Z,1.00
2018-09-18T23:19:02.258Z,1.10
2018-09-18T23:21:30.723Z,1.30
2018-09-18T23:23:59.169Z,1.20
2018-09-18T23:26:27.583Z,1.13
2018-09-18T23:28:56.049Z,1.10
2018-09-18T23:31:24.565Z,1.17
2018-09-18T23:33:53.004Z,1.20
2018-09-18T23:36:21.401Z,1.50
2018-09-18T23:38:49.838Z,1.30
2018-09-18T23:41:18.350Z,1.50
2018-09-18T23:43:46.798Z,1.40
2018-09-18T23:46:15.189Z,1.60
2018-09-18T23:48:43.627Z,1.50
2018-09-18T23:51:12.072Z,1.40
2018-09-18T23:53:40.503Z,1.73
2018-09-18T23:56:08.946Z,1.50
2018-09-18T23:58:37.364Z,1.60
